Time;durP1;ratioP1;P1;durP2;ratioP2;P2;SDS_P1;SDS_P2;PMS_P1;PMS_P2;Temp;Humidity;BMP_temperature;BMP_pressure;BME280_temperature;BME280_humidity;BME280_pressure;Samples;Min_cycle;Max_cycle;Signal;HPM_P1;HPM_P2
2022/08/23 00:00:20;;;;;;;;;;;;;;;;;;5035582;28;20219;-23
2022/08/23 00:02:46;;;;;;;;;;;;;;;;;;5035359;28;19913;-23
2022/08/23 00:05:12;;;;;;;;;;;;;;;;;;5035580;28;19913;-23
2022/08/23 00:07:38;;;;;;;;;;;;;;;;;;5017991;28;19924;-23
2022/08/23 00:10:04;;;;;;;;;;;;;;;;;;5035558;28;19913;-23
2022/08/23 00:12:30;;;;;;;;;;;;;;;;;;5035334;28;19917;-23
2022/08/23 00:14:56;;;;;;;;;;;;;;;;;;5035328;28;19924;-23
2022/08/23 00:17:22;;;;;;;;;;;;;;;;;;5017913;28;20391;-22
2022/08/23 00:19:48;;;;;;;;;;;;;;;;;;5035252;28;20268;-23
2022/08/23 00:22:15;;;;;;;;;;;;;;;;;;5035432;28;19909;-23
2022/08/23 00:24:41;;;;;;;;;;;;;;;;;;5017780;28;19955;-23
2022/08/23 00:27:07;;;;;;;;;;;;;;;;;;5017719;28;19909;-23
2022/08/23 00:29:33;;;;;;;;;;;;;;;;;;5035460;28;19909;-23
2022/08/23 00:31:59;;;;;;;;;;;;;;;;;;5035070;28;19953;-23
2022/08/23 00:34:25;;;;;;;;;;;;;;;;;;5035344;28;19916;-24
2022/08/23 00:36:51;;;;;;;;;;;;;;;;;;5035078;28;19913;-23
2022/08/23 00:39:17;;;;;;;;;;;;;;;;;;5017562;28;19924;-23
2022/08/23 00:41:43;;;;;;;;;;;;;;;;;;5035257;28;19959;-23
2022/08/23 00:49:39;;;;;;;;;;;;;;;;;;5035189;28;19923;-23
2022/08/23 00:52:06;;;;;;;;;;;;;;;;;;5034834;28;19971;-23
2022/08/23 00:54:32;;;;;;;;;;;;;;;;;;5034828;28;19944;-23
2022/08/23 00:56:58;;;;;;;;;;;;;;;;;;5034914;28;19952;-23
2022/08/23 00:59:24;;;;;;;;;;;;;;;;;;5034866;28;20327;-23
2022/08/23 01:01:50;;;;;;;;;;;;;;;;;;5017390;28;19913;-23
2022/08/23 01:04:16;;;;;;;;;;;;;;;;;;5034650;28;20239;-23
2022/08/23 01:06:42;;;;;;;;;;;;;;;;;;5034992;28;19913;-23
2022/08/23 01:09:09;;;;;;;;;;;;;;;;;;5035013;28;19909;-23
2022/08/23 01:11:35;;;;;;;;;;;;;;;;;;5034669;28;19913;-23
2022/08/23 01:14:02;;;;;;;;;;;;;;;;;;5034591;28;19978;-23
2022/08/23 01:16:28;;;;;;;;;;;;;;;;;;5034767;28;20428;-23
2022/08/23 01:18:54;;;;;;;;;;;;;;;;;;5036855;28;19951;-23
2022/08/23 01:21:20;;;;;;;;;;;;;;;;;;5038900;28;20348;-23
2022/08/23 01:23:46;;;;;;;;;;;;;;;;;;5038587;28;19916;-23
2022/08/23 01:26:12;;;;;;;;;;;;;;;;;;5038560;28;19992;-23
2022/08/23 01:28:39;;;;;;;;;;;;;;;;;;5038587;28;19909;-23
2022/08/23 01:31:06;;;;;;;;;;;;;;;;;;5038403;28;19913;-25
2022/08/23 01:33:32;;;;;;;;;;;;;;;;;;5038364;28;19982;-22
2022/08/23 01:35:58;;;;;;;;;;;;;;;;;;5038643;28;19918;-25
2022/08/23 01:38:24;;;;;;;;;;;;;;;;;;5038683;28;19917;-25
2022/08/23 01:40:50;;;;;;;;;;;;;;;;;;5020964;28;20317;-28
2022/08/23 01:43:18;;;;;;;;;;;;;;;;;;5038226;28;20004;-23
2022/08/23 01:45:44;;;;;;;;;;;;;;;;;;5038329;28;19909;-25
2022/08/23 01:48:10;;;;;;;;;;;;;;;;;;5038112;28;19917;-28
2022/08/23 01:50:36;;;;;;;;;;;;;;;;;;5038140;28;19910;-32
2022/08/23 01:53:02;;;;;;;;;;;;;;;;;;5038073;28;19920;-26
2022/08/23 01:55:28;;;;;;;;;;;;;;;;;;5037926;28;20252;-24
2022/08/23 01:57:54;;;;;;;;;;;;;;;;;;5038328;28;19968;-25
2022/08/23 02:00:20;;;;;;;;;;;;;;;;;;5038247;28;19936;-25
2022/08/23 02:02:46;;;;;;;;;;;;;;;;;;5037686;28;20237;-29
2022/08/23 02:05:12;;;;;;;;;;;;;;;;;;5037908;28;19946;-25
2022/08/23 02:07:38;;;;;;;;;;;;;;;;;;5037944;28;19992;-27
2022/08/23 02:10:04;;;;;;;;;;;;;;;;;;5038071;28;20007;-25
2022/08/23 02:12:30;;;;;;;;;;;;;;;;;;5037676;28;20360;-23
2022/08/23 02:14:56;;;;;;;;;;;;;;;;;;5037895;28;20020;-24
2022/08/23 02:17:22;;;;;;;;;;;;;;;;;;5037702;28;20245;-23
2022/08/23 02:19:48;;;;;;;;;;;;;;;;;;5038334;28;19913;-26
2022/08/23 02:22:14;;;;;;;;;;;;;;;;;;5037731;28;19979;-24
2022/08/23 02:24:40;;;;;;;;;;;;;;;;;;5037580;28;19924;-28
2022/08/23 02:27:06;;;;;;;;;;;;;;;;;;5037437;28;20046;-27
2022/08/23 02:29:34;;;;;;;;;;;;;;;;;;5036129;28;19959;-31
2022/08/23 02:32:00;;;;;;;;;;;;;;;;;;5037265;28;20371;-26
2022/08/23 02:34:26;;;;;;;;;;;;;;;;;;5037367;28;19910;-25
2022/08/23 02:36:53;;;;;;;;;;;;;;;;;;5019775;28;20368;-23
2022/08/23 02:39:19;;;;;;;;;;;;;;;;;;5037579;28;20252;-23
2022/08/23 02:41:45;;;;;;;;;;;;;;;;;;5019843;28;19909;-23
2022/08/23 02:44:11;;;;;;;;;;;;;;;;;;5037257;28;19913;-29
2022/08/23 02:46:37;;;;;;;;;;;;;;;;;;5037253;28;19992;-23
2022/08/23 02:49:03;;;;;;;;;;;;;;;;;;5037091;28;19913;-23
2022/08/23 02:51:29;;;;;;;;;;;;;;;;;;5037076;28;20306;-25
2022/08/23 02:53:55;;;;;;;;;;;;;;;;;;5037012;28;20390;-24
2022/08/23 02:56:21;;;;;;;;;;;;;;;;;;5019546;28;19917;-26
2022/08/23 02:58:47;;;;;;;;;;;;;;;;;;5036945;28;19974;-24
2022/08/23 03:01:13;;;;;;;;;;;;;;;;;;5037111;28;20328;-28
2022/08/23 03:03:39;;;;;;;;;;;;;;;;;;5036721;28;19996;-33
2022/08/23 03:06:05;;;;;;;;;;;;;;;;;;5037086;28;19999;-28
2022/08/23 03:08:31;;;;;;;;;;;;;;;;;;5036978;28;20360;-24
2022/08/23 03:10:57;;;;;;;;;;;;;;;;;;5036745;28;19956;-29
2022/08/23 03:13:23;;;;;;;;;;;;;;;;;;5036658;28;19913;-22
2022/08/23 03:15:49;;;;;;;;;;;;;;;;;;5036803;28;19913;-27
2022/08/23 03:18:16;;;;;;;;;;;;;;;;;;5036586;28;19913;-25
2022/08/23 03:20:42;;;;;;;;;;;;;;;;;;5036673;28;19963;-32
2022/08/23 03:23:08;;;;;;;;;;;;;;;;;;5036506;28;20233;-23
2022/08/23 03:25:34;;;;;;;;;;;;;;;;;;5036453;28;20272;-22
2022/08/23 03:28:01;;;;;;;;;;;;;;;;;;5036385;28;19932;-23
2022/08/23 03:30:27;;;;;;;;;;;;;;;;;;5036597;28;20202;-27
2022/08/23 03:32:53;;;;;;;;;;;;;;;;;;5036265;28;19963;-25
2022/08/23 03:35:19;;;;;;;;;;;;;;;;;;5036156;28;19961;-25
2022/08/23 03:37:45;;;;;;;;;;;;;;;;;;5036390;28;19955;-26
2022/08/23 03:40:11;;;;;;;;;;;;;;;;;;5036043;28;19983;-27
2022/08/23 03:42:37;;;;;;;;;;;;;;;;;;5018021;28;19920;-28
2022/08/23 03:45:03;;;;;;;;;;;;;;;;;;5036228;28;20226;-26
2022/08/23 03:47:29;;;;;;;;;;;;;;;;;;5018438;28;19916;-27
2022/08/23 03:49:56;;;;;;;;;;;;;;;;;;5036060;28;20006;-27
2022/08/23 03:52:22;;;;;;;;;;;;;;;;;;5035614;28;19924;-32
2022/08/23 03:54:49;;;;;;;;;;;;;;;;;;5035679;28;19914;-26
2022/08/23 03:57:14;;;;;;;;;;;;;;;;;;5035509;28;20070;-25
2022/08/23 03:59:41;;;;;;;;;;;;;;;;;;5035526;28;19960;-23
2022/08/23 04:02:07;;;;;;;;;;;;;;;;;;5035374;28;19913;-25
2022/08/23 04:04:33;;;;;;;;;;;;;;;;;;5035228;28;19979;-22
2022/08/23 04:06:59;;;;;;;;;;;;;;;;;;5035552;28;19913;-24
2022/08/23 04:09:25;;;;;;;;;;;;;;;;;;5035543;28;19909;-28
2022/08/23 04:11:52;;;;;;;;;;;;;;;;;;5035881;28;20309;-25
2022/08/23 04:14:18;;;;;;;;;;;;;;;;;;5035430;28;20293;-24
2022/08/23 04:16:44;;;;;;;;;;;;;;;;;;5035660;28;19928;-29
2022/08/23 04:19:11;;;;;;;;;;;;;;;;;;5035216;28;19914;-26
2022/08/23 04:21:37;;;;;;;;;;;;;;;;;;5017597;28;19913;-24
2022/08/23 04:24:03;;;;;;;;;;;;;;;;;;5035222;28;19920;-23
2022/08/23 04:26:29;;;;;;;;;;;;;;;;;;5035037;28;19913;-23
2022/08/23 04:28:55;;;;;;;;;;;;;;;;;;5035185;28;19924;-24
2022/08/23 04:31:21;;;;;;;;;;;;;;;;;;5035066;28;20339;-24
2022/08/23 04:33:48;;;;;;;;;;;;;;;;;;5035197;28;19947;-27
2022/08/23 04:36:14;;;;;;;;;;;;;;;;;;5034902;28;19923;-25
2022/08/23 04:38:40;;;;;;;;;;;;;;;;;;5035584;28;20003;-30
2022/08/23 04:43:51;;;;;;;;;;;;;;;;;;5034707;28;19924;-23
2022/08/23 04:46:17;;;;;;;;;;;;;;;;;;5034586;28;19909;-26
2022/08/23 04:48:43;;;;;;;;;;;;;;;;;;5034910;28;19967;-30
2022/08/23 04:51:09;;;;;;;;;;;;;;;;;;5034890;28;19913;-24
2022/08/23 04:53:35;;;;;;;;;;;;;;;;;;5033867;28;19952;-27
2022/08/23 04:56:01;;;;;;;;;;;;;;;;;;5034500;28;19960;-27
2022/08/23 04:58:27;;;;;;;;;;;;;;;;;;5034708;28;19917;-30
2022/08/23 05:00:53;;;;;;;;;;;;;;;;;;5034728;28;19913;-28
2022/08/23 05:03:19;;;;;;;;;;;;;;;;;;5034244;28;19986;-23
2022/08/23 05:05:45;;;;;;;;;;;;;;;;;;5016859;28;19909;-26
2022/08/23 05:08:11;;;;;;;;;;;;;;;;;;5034357;28;20000;-25
2022/08/23 05:10:37;;;;;;;;;;;;;;;;;;5034483;28;19963;-23
2022/08/23 05:13:03;;;;;;;;;;;;;;;;;;5034417;28;19949;-24
2022/08/23 05:15:29;;;;;;;;;;;;;;;;;;5034188;28;20362;-26
2022/08/23 05:17:55;;;;;;;;;;;;;;;;;;5016654;28;19940;-25
2022/08/23 05:20:21;;;;;;;;;;;;;;;;;;5034401;28;19913;-26
2022/08/23 05:22:49;;;;;;;;;;;;;;;;;;5034423;28;19913;-27
2022/08/23 05:25:15;;;;;;;;;;;;;;;;;;5034615;28;19925;-26
2022/08/23 05:27:41;;;;;;;;;;;;;;;;;;5034208;28;19981;-23
2022/08/23 05:30:07;;;;;;;;;;;;;;;;;;5034202;28;19913;-30
2022/08/23 05:32:33;;;;;;;;;;;;;;;;;;5034298;28;19940;-30
2022/08/23 05:34:59;;;;;;;;;;;;;;;;;;5034254;28;19971;-26
2022/08/23 05:37:25;;;;;;;;;;;;;;;;;;5034366;28;19917;-26
2022/08/23 05:39:51;;;;;;;;;;;;;;;;;;5016645;28;20260;-24
2022/08/23 05:42:17;;;;;;;;;;;;;;;;;;5033988;28;19971;-30
2022/08/23 05:44:44;;;;;;;;;;;;;;;;;;5034178;28;19913;-23
2022/08/23 05:47:10;;;;;;;;;;;;;;;;;;5033979;28;20012;-29
2022/08/23 05:49:36;;;;;;;;;;;;;;;;;;5034060;28;19924;-28
2022/08/23 05:52:02;;;;;;;;;;;;;;;;;;5033999;28;19913;-25
2022/08/23 05:54:28;;;;;;;;;;;;;;;;;;5034183;28;19916;-26
2022/08/23 05:56:54;;;;;;;;;;;;;;;;;;5034260;28;19917;-27
2022/08/23 05:59:20;;;;;;;;;;;;;;;;;;5034184;28;19913;-28
2022/08/23 06:01:46;;;;;;;;;;;;;;;;;;5033899;28;19952;-26
2022/08/23 06:04:12;;;;;;;;;;;;;;;;;;5034744;28;19921;-33
2022/08/23 06:06:38;;;;;;;;;;;;;;;;;;5037709;28;20268;-27
2022/08/23 06:09:04;;;;;;;;;;;;;;;;;;5020007;28;19980;-26
2022/08/23 06:11:30;;;;;;;;;;;;;;;;;;5037632;28;20302;-29
2022/08/23 06:13:56;;;;;;;;;;;;;;;;;;5037243;28;19923;-25
2022/08/23 06:16:22;;;;;;;;;;;;;;;;;;5037562;28;19917;-25
2022/08/23 06:18:48;;;;;;;;;;;;;;;;;;5037057;28;20395;-26
2022/08/23 06:21:14;;;;;;;;;;;;;;;;;;5037164;28;20398;-25
2022/08/23 06:23:40;;;;;;;;;;;;;;;;;;5037116;28;19932;-26
2022/08/23 06:26:06;;;;;;;;;;;;;;;;;;5037060;28;19913;-28
2022/08/23 06:28:32;;;;;;;;;;;;;;;;;;5037123;28;19909;-29
2022/08/23 06:30:58;;;;;;;;;;;;;;;;;;5037266;28;19978;-27
2022/08/23 06:33:26;;;;;;;;;;;;;;;;;;5019156;28;19975;-27
2022/08/23 06:35:52;;;;;;;;;;;;;;;;;;5036664;28;19921;-23
2022/08/23 06:38:18;;;;;;;;;;;;;;;;;;5037121;28;19909;-30
2022/08/23 06:40:44;;;;;;;;;;;;;;;;;;5037432;28;20340;-27
2022/08/23 06:43:10;;;;;;;;;;;;;;;;;;5019503;28;19913;-27
2022/08/23 06:45:36;;;;;;;;;;;;;;;;;;5019467;28;19921;-29
2022/08/23 06:48:02;;;;;;;;;;;;;;;;;;5036918;28;20051;-24
2022/08/23 06:50:28;;;;;;;;;;;;;;;;;;5036975;28;20012;-27
2022/08/23 06:52:54;;;;;;;;;;;;;;;;;;5019454;28;20233;-27
2022/08/23 06:55:20;;;;;;;;;;;;;;;;;;5036790;28;20013;-24
2022/08/23 06:57:46;;;;;;;;;;;;;;;;;;5036777;28;19913;-26
2022/08/23 07:00:12;;;;;;;;;;;;;;;;;;5036621;28;20310;-29
2022/08/23 07:02:38;;;;;;;;;;;;;;;;;;5036502;28;19977;-29
2022/08/23 07:05:04;;;;;;;;;;;;;;;;;;5036831;28;20340;-28
2022/08/23 07:07:31;;;;;;;;;;;;;;;;;;5018836;28;20410;-23
2022/08/23 07:09:57;;;;;;;;;;;;;;;;;;5036493;28;19913;-26
2022/08/23 07:12:23;;;;;;;;;;;;;;;;;;5019112;28;19968;-24
2022/08/23 07:14:48;;;;;;;;;;;;;;;;;;5036215;28;20011;-27
2022/08/23 07:17:15;;;;;;;;;;;;;;;;;;5035333;28;19955;-25
2022/08/23 07:19:43;;;;;;;;;;;;;;;;;;5036375;28;20229;-28
2022/08/23 07:22:09;;;;;;;;;;;;;;;;;;5018614;28;19908;-27
2022/08/23 07:24:36;;;;;;;;;;;;;;;;;;5036592;28;20240;-25
2022/08/23 07:27:05;;;;;;;;;;;;;;;;;;5036278;28;19932;-27
2022/08/23 07:29:31;;;;;;;;;;;;;;;;;;5036291;28;20228;-24
2022/08/23 07:31:57;;;;;;;;;;;;;;;;;;5036018;28;20256;-30
2022/08/23 07:34:23;;;;;;;;;;;;;;;;;;5036316;28;19920;-30
2022/08/23 07:36:49;;;;;;;;;;;;;;;;;;5035906;28;19940;-31
2022/08/23 07:39:15;;;;;;;;;;;;;;;;;;5035909;28;19909;-28
2022/08/23 07:41:41;;;;;;;;;;;;;;;;;;5035870;28;19913;-27
2022/08/23 07:44:08;;;;;;;;;;;;;;;;;;5035439;28;19913;-25
2022/08/23 07:46:34;;;;;;;;;;;;;;;;;;5035654;28;19909;-28
2022/08/23 07:49:00;;;;;;;;;;;;;;;;;;5036173;28;19928;-26
2022/08/23 07:51:26;;;;;;;;;;;;;;;;;;5036533;28;19913;-24
2022/08/23 07:53:52;;;;;;;;;;;;;;;;;;5035428;28;19939;-30
2022/08/23 07:56:18;;;;;;;;;;;;;;;;;;5035426;28;19917;-28
2022/08/23 07:58:44;;;;;;;;;;;;;;;;;;5035196;28;19920;-27
2022/08/23 08:01:11;;;;;;;;;;;;;;;;;;5035631;28;19909;-25
2022/08/23 08:03:37;;;;;;;;;;;;;;;;;;5034940;28;20000;-27
2022/08/23 08:06:03;;;;;;;;;;;;;;;;;;5017614;28;20374;-29
2022/08/23 08:08:29;;;;;;;;;;;;;;;;;;5035239;28;19910;-26
2022/08/23 08:10:55;;;;;;;;;;;;;;;;;;5035162;28;19921;-24
2022/08/23 08:13:21;;;;;;;;;;;;;;;;;;5035072;28;19963;-29
2022/08/23 08:15:47;;;;;;;;;;;;;;;;;;5034897;28;19921;-31
2022/08/23 08:18:14;;;;;;;;;;;;;;;;;;5035139;28;20232;-30
2022/08/23 08:20:40;;;;;;;;;;;;;;;;;;5034769;28;19971;-24
2022/08/23 08:23:06;;;;;;;;;;;;;;;;;;5017063;28;19913;-27
2022/08/23 08:25:33;;;;;;;;;;;;;;;;;;5035098;28;20011;-27
2022/08/23 08:27:59;;;;;;;;;;;;;;;;;;5034874;28;19913;-27
2022/08/23 08:30:24;;;;;;;;;;;;;;;;;;5035069;28;19932;-28
2022/08/23 08:32:51;;;;;;;;;;;;;;;;;;5034621;28;19995;-31
2022/08/23 08:35:16;;;;;;;;;;;;;;;;;;5017083;28;20256;-30
2022/08/23 08:37:42;;;;;;;;;;;;;;;;;;5034591;28;19909;-25
2022/08/23 08:40:09;;;;;;;;;;;;;;;;;;5034500;28;19913;-27
2022/08/23 08:42:35;;;;;;;;;;;;;;;;;;5034821;28;19913;-31
2022/08/23 08:45:01;;;;;;;;;;;;;;;;;;5016890;28;19917;-28
2022/08/23 08:47:27;;;;;;;;;;;;;;;;;;5034183;28;19913;-26
2022/08/23 08:49:53;;;;;;;;;;;;;;;;;;5034354;28;19980;-26
2022/08/23 08:52:20;;;;;;;;;;;;;;;;;;5034089;28;19921;-30
2022/08/23 08:54:46;;;;;;;;;;;;;;;;;;5034292;28;19948;-25
2022/08/23 08:57:12;;;;;;;;;;;;;;;;;;5034175;28;20296;-28
2022/08/23 08:59:38;;;;;;;;;;;;;;;;;;5034233;28;20019;-25
2022/08/23 09:02:04;;;;;;;;;;;;;;;;;;5034275;28;19917;-30
2022/08/23 09:04:30;;;;;;;;;;;;;;;;;;5033871;28;19967;-27
2022/08/23 09:06:56;;;;;;;;;;;;;;;;;;5033936;28;19913;-27
2022/08/23 09:09:22;;;;;;;;;;;;;;;;;;5033926;28;20398;-26
2022/08/23 09:11:49;;;;;;;;;;;;;;;;;;5033921;28;20259;-32
2022/08/23 09:14:15;;;;;;;;;;;;;;;;;;5034084;28;20232;-27
2022/08/23 09:16:41;;;;;;;;;;;;;;;;;;5033715;28;20311;-30
2022/08/23 09:19:07;;;;;;;;;;;;;;;;;;5016438;28;19931;-25
2022/08/23 09:21:33;;;;;;;;;;;;;;;;;;5034074;28;19909;-27
2022/08/23 09:23:59;;;;;;;;;;;;;;;;;;5034138;28;19913;-28
2022/08/23 09:26:25;;;;;;;;;;;;;;;;;;5034400;28;19984;-24
2022/08/23 09:28:51;;;;;;;;;;;;;;;;;;5034119;28;20012;-26
2022/08/23 09:31:17;;;;;;;;;;;;;;;;;;5034151;28;19916;-25
2022/08/23 09:33:44;;;;;;;;;;;;;;;;;;5016316;28;19956;-28
2022/08/23 09:36:10;;;;;;;;;;;;;;;;;;5016592;28;19921;-30
2022/08/23 09:38:36;;;;;;;;;;;;;;;;;;5034136;28;19924;-30
2022/08/23 09:41:02;;;;;;;;;;;;;;;;;;5038293;28;20351;-24
2022/08/23 09:43:30;;;;;;;;;;;;;;;;;;5038026;28;19912;-27
2022/08/23 09:45:56;;;;;;;;;;;;;;;;;;5020562;28;19913;-28
2022/08/23 09:48:22;;;;;;;;;;;;;;;;;;5038093;28;20347;-29
2022/08/23 09:50:48;;;;;;;;;;;;;;;;;;5020608;28;19913;-26
2022/08/23 09:53:14;;;;;;;;;;;;;;;;;;5037836;28;19936;-25
2022/08/23 09:55:41;;;;;;;;;;;;;;;;;;5038099;28;19921;-26
2022/08/23 09:58:07;;;;;;;;;;;;;;;;;;5038071;28;20220;-27
2022/08/23 10:00:33;;;;;;;;;;;;;;;;;;5037729;28;19913;-27
2022/08/23 10:02:59;;;;;;;;;;;;;;;;;;5037413;28;19924;-27
2022/08/23 10:05:25;;;;;;;;;;;;;;;;;;5036556;28;20355;-25
2022/08/23 10:07:51;;;;;;;;;;;;;;;;;;5018797;28;19909;-28
2022/08/23 10:10:17;;;;;;;;;;;;;;;;;;5036293;28;20371;-25
2022/08/23 10:12:43;;;;;;;;;;;;;;;;;;5036344;28;19967;-30
2022/08/23 10:15:09;;;;;;;;;;;;;;;;;;5036071;28;19987;-25
2022/08/23 10:17:36;;;;;;;;;;;;;;;;;;5036183;28;19913;-28
2022/08/23 10:20:02;;;;;;;;;;;;;;;;;;5035953;28;19921;-27
2022/08/23 10:22:28;;;;;;;;;;;;;;;;;;5018333;28;19909;-25
2022/08/23 10:24:54;;;;;;;;;;;;;;;;;;5036079;28;19913;-24
2022/08/23 10:30:05;;;;;;;;;;;;;;;;;;5035909;28;19967;-32
2022/08/23 10:32:31;;;;;;;;;;;;;;;;;;5035565;28;19924;-27
2022/08/23 10:34:57;;;;;;;;;;;;;;;;;;5036025;28;19921;-26
2022/08/23 10:37:24;;;;;;;;;;;;;;;;;;5035694;28;19967;-28
2022/08/23 10:39:50;;;;;;;;;;;;;;;;;;5035831;28;20104;-27
2022/08/23 10:42:16;;;;;;;;;;;;;;;;;;5035983;28;19913;-30
2022/08/23 10:44:43;;;;;;;;;;;;;;;;;;5035851;28;20092;-26
2022/08/23 10:47:09;;;;;;;;;;;;;;;;;;5035818;28;19913;-30
2022/08/23 10:49:35;;;;;;;;;;;;;;;;;;5035849;28;20326;-24
2022/08/23 10:52:01;;;;;;;;;;;;;;;;;;5034680;28;20229;-29
2022/08/23 10:54:33;;;;;;;;;;;;;;;;;;5035559;28;19916;-25
2022/08/23 10:56:59;;;;;;;;;;;;;;;;;;5036308;28;19927;-30
2022/08/23 10:59:26;;;;;;;;;;;;;;;;;;5035599;28;19940;-25
2022/08/23 11:01:52;;;;;;;;;;;;;;;;;;5035426;28;19923;-24
2022/08/23 11:05:13;;;;;;;;;;;;;;;;;;5091513;27;19923;-29
2022/08/23 11:07:43;;;;;;;;;;;;;;;;;;5091535;28;20041;-28
2022/08/23 11:10:09;;;;;;;;;;;;;;;;;;5091432;28;19923;-31
2022/08/23 11:12:35;;;;;;;;;;;;;;;;;;5091303;28;19927;-28
2022/08/23 11:15:01;;;;;;;;;;;;;;;;;;5091570;28;19974;-30
2022/08/23 11:17:27;;;;;;;;;;;;;;;;;;5091526;28;19924;-28
2022/08/23 11:19:53;;;;;;;;;;;;;;;;;;5091244;28;19983;-29
2022/08/23 11:22:19;;;;;;;;;;;;;;;;;;5091702;28;19916;-30
2022/08/23 11:24:45;;;;;;;;;;;;;;;;;;5091641;28;20235;-25
2022/08/23 11:27:12;;;;;;;;;;;;;;;;;;5091856;28;20247;-31
2022/08/23 11:29:39;;;;;;;;;;;;;;;;;;5091393;28;19923;-24
2022/08/23 11:32:05;;;;;;;;;;;;;;;;;;5091270;28;20255;-30
2022/08/23 11:34:31;;;;;;;;;;;;;;;;;;5091593;28;19908;-30
2022/08/23 11:36:57;;;;;;;;;;;;;;;;;;5091551;28;19947;-25
2022/08/23 11:39:23;;;;;;;;;;;;;;;;;;5090332;28;19913;-26
2022/08/23 11:41:49;;;;;;;;;;;;;;;;;;5091211;28;19924;-25
2022/08/23 11:44:16;;;;;;;;;;;;;;;;;;5091334;28;19912;-24
2022/08/23 11:46:42;;;;;;;;;;;;;;;;;;5090087;28;19987;-27
2022/08/23 11:49:08;;;;;;;;;;;;;;;;;;5090664;28;19908;-29
2022/08/23 11:51:35;;;;;;;;;;;;;;;;;;5091270;28;19917;-27
2022/08/23 11:54:01;;;;;;;;;;;;;;;;;;5091648;28;19909;-23
2022/08/23 11:56:27;;;;;;;;;;;;;;;;;;5091050;28;20007;-25
2022/08/23 11:58:53;;;;;;;;;;;;;;;;;;5090961;28;20184;-28
2022/08/23 12:01:19;;;;;;;;;;;;;;;;;;5091039;28;19913;-33
2022/08/23 12:03:46;;;;;;;;;;;;;;;;;;5098897;28;19924;-26
2022/08/23 12:06:12;;;;;;;;;;;;;;;;;;5110205;28;19908;-27
2022/08/23 12:08:38;;;;;;;;;;;;;;;;;;5111002;28;20244;-30
2022/08/23 12:11:04;;;;;;;;;;;;;;;;;;5111139;28;19912;-26
2022/08/23 12:13:30;;;;;;;;;;;;;;;;;;5111044;28;19909;-31
2022/08/23 12:15:56;;;;;;;;;;;;;;;;;;5101353;28;19912;-25
2022/08/23 12:18:22;;;;;;;;;;;;;;;;;;5097504;28;20002;-26
2022/08/23 12:20:48;;;;;;;;;;;;;;;;;;5097470;28;19908;-27
2022/08/23 12:23:14;;;;;;;;;;;;;;;;;;5097248;28;19981;-29
2022/08/23 12:25:41;;;;;;;;;;;;;;;;;;5097172;28;19919;-28
2022/08/23 12:28:07;;;;;;;;;;;;;;;;;;5097086;28;19921;-28
2022/08/23 12:30:33;;;;;;;;;;;;;;;;;;5096242;28;19912;-29
2022/08/23 12:33:01;;;;;;;;;;;;;;;;;;5097216;28;19991;-31
2022/08/23 12:35:27;;;;;;;;;;;;;;;;;;5097312;28;19978;-30
2022/08/23 12:37:54;;;;;;;;;;;;;;;;;;5097058;28;20408;-27
2022/08/23 12:40:20;;;;;;;;;;;;;;;;;;5097090;28;19912;-31
2022/08/23 12:42:46;;;;;;;;;;;;;;;;;;5096910;28;20057;-27
2022/08/23 12:45:12;;;;;;;;;;;;;;;;;;5096949;28;19916;-25
2022/08/23 12:47:41;;;;;;;;;;;;;;;;;;5096791;28;19961;-25
2022/08/23 12:50:08;;;;;;;;;;;;;;;;;;5097092;28;20243;-24
2022/08/23 12:52:34;;;;;;;;;;;;;;;;;;5096930;28;19935;-32
2022/08/23 12:55:00;;;;;;;;;;;;;;;;;;5096748;28;19912;-26
2022/08/23 12:57:27;;;;;;;;;;;;;;;;;;5096741;28;19908;-26
2022/08/23 12:59:53;;;;;;;;;;;;;;;;;;5096475;28;19912;-27
2022/08/23 13:02:19;;;;;;;;;;;;;;;;;;5096574;28;19908;-28
2022/08/23 13:04:46;;;;;;;;;;;;;;;;;;5095279;28;19924;-26
2022/08/23 13:07:12;;;;;;;;;;;;;;;;;;5097693;28;19908;-23
2022/08/23 13:09:38;;;;;;;;;;;;;;;;;;5096491;28;19923;-26
2022/08/23 13:12:05;;;;;;;;;;;;;;;;;;5096468;28;19923;-29
2022/08/23 13:14:31;;;;;;;;;;;;;;;;;;5096306;28;19909;-31
2022/08/23 13:16:58;;;;;;;;;;;;;;;;;;5096126;28;19934;-29
2022/08/23 13:19:24;;;;;;;;;;;;;;;;;;5096058;28;19908;-29
2022/08/23 13:21:50;;;;;;;;;;;;;;;;;;5094973;28;20238;-25
2022/08/23 13:24:16;;;;;;;;;;;;;;;;;;5095985;28;19938;-27
2022/08/23 13:26:42;;;;;;;;;;;;;;;;;;5094018;28;19919;-30
2022/08/23 13:29:08;;;;;;;;;;;;;;;;;;5096059;28;20289;-28
2022/08/23 13:31:34;;;;;;;;;;;;;;;;;;5096100;28;19912;-26
2022/08/23 13:34:00;;;;;;;;;;;;;;;;;;5096018;28;20247;-26
2022/08/23 13:36:26;;;;;;;;;;;;;;;;;;5096145;28;19919;-27
2022/08/23 13:38:52;;;;;;;;;;;;;;;;;;5095933;28;19908;-30
2022/08/23 13:41:18;;;;;;;;;;;;;;;;;;5096083;28;19973;-27
2022/08/23 13:43:44;;;;;;;;;;;;;;;;;;5095573;28;20367;-27
2022/08/23 13:46:10;;;;;;;;;;;;;;;;;;5095825;28;20050;-31
2022/08/23 13:48:37;;;;;;;;;;;;;;;;;;5094765;28;19916;-28
2022/08/23 13:51:03;;;;;;;;;;;;;;;;;;5094560;28;19939;-25
2022/08/23 13:53:29;;;;;;;;;;;;;;;;;;5095622;28;19923;-30
2022/08/23 13:55:58;;;;;;;;;;;;;;;;;;5095775;28;19942;-29
2022/08/23 13:58:24;;;;;;;;;;;;;;;;;;5095623;28;20259;-24
2022/08/23 14:00:50;;;;;;;;;;;;;;;;;;5095626;28;20232;-26
2022/08/23 14:03:17;;;;;;;;;;;;;;;;;;5094773;28;20210;-24
2022/08/23 14:05:43;;;;;;;;;;;;;;;;;;5095524;28;19984;-27
2022/08/23 14:08:09;;;;;;;;;;;;;;;;;;5095129;28;20412;-27
2022/08/23 14:10:35;;;;;;;;;;;;;;;;;;5095133;28;19916;-28
2022/08/23 14:13:01;;;;;;;;;;;;;;;;;;5095076;28;19919;-26
2022/08/23 14:15:27;;;;;;;;;;;;;;;;;;5095099;28;20066;-26
2022/08/23 14:17:53;;;;;;;;;;;;;;;;;;5095115;28;19954;-26
2022/08/23 14:20:20;;;;;;;;;;;;;;;;;;5094928;28;20327;-24
2022/08/23 14:22:46;;;;;;;;;;;;;;;;;;5094910;28;19912;-28
2022/08/23 14:25:12;;;;;;;;;;;;;;;;;;5094868;28;19943;-25
2022/08/23 14:27:38;;;;;;;;;;;;;;;;;;5094864;28;19986;-31
2022/08/23 14:30:04;;;;;;;;;;;;;;;;;;5095349;28;19908;-24
2022/08/23 14:32:30;;;;;;;;;;;;;;;;;;5094852;28;19966;-29
2022/08/23 14:34:56;;;;;;;;;;;;;;;;;;5094868;28;19912;-24
2022/08/23 14:37:22;;;;;;;;;;;;;;;;;;5095130;28;19991;-25
2022/08/23 14:39:48;;;;;;;;;;;;;;;;;;5094909;28;19916;-30
2022/08/23 14:42:14;;;;;;;;;;;;;;;;;;5095196;28;20444;-29
2022/08/23 14:44:40;;;;;;;;;;;;;;;;;;5095311;28;19912;-27
2022/08/23 14:47:06;;;;;;;;;;;;;;;;;;5095335;28;19912;-29
2022/08/23 14:49:32;;;;;;;;;;;;;;;;;;5094795;28;20007;-27
2022/08/23 14:51:58;;;;;;;;;;;;;;;;;;5093483;28;19912;-28
2022/08/23 14:54:24;;;;;;;;;;;;;;;;;;5094532;28;19924;-24
2022/08/23 14:56:50;;;;;;;;;;;;;;;;;;5094781;28;19912;-28
2022/08/23 14:59:16;;;;;;;;;;;;;;;;;;5094793;28;19969;-27
2022/08/23 15:01:42;;;;;;;;;;;;;;;;;;5094872;28;19912;-29
2022/08/23 15:04:08;;;;;;;;;;;;;;;;;;5094295;28;20365;-27
2022/08/23 15:06:35;;;;;;;;;;;;;;;;;;5094270;28;19972;-25
2022/08/23 15:09:01;;;;;;;;;;;;;;;;;;5093674;28;19923;-30
2022/08/23 15:11:27;;;;;;;;;;;;;;;;;;5094396;28;19920;-28
2022/08/23 15:13:53;;;;;;;;;;;;;;;;;;5094156;28;19972;-26
2022/08/23 15:16:20;;;;;;;;;;;;;;;;;;5094190;28;19933;-25
2022/08/23 15:18:46;;;;;;;;;;;;;;;;;;5093308;28;20297;-25
2022/08/23 15:21:12;;;;;;;;;;;;;;;;;;5093311;28;19915;-25
2022/08/23 15:23:37;;;;;;;;;;;;;;;;;;5093488;28;19916;-26
2022/08/23 15:26:03;;;;;;;;;;;;;;;;;;5093382;28;19973;-27
2022/08/23 15:28:29;;;;;;;;;;;;;;;;;;5093462;28;19997;-25
2022/08/23 15:30:56;;;;;;;;;;;;;;;;;;5093585;28;19912;-28
2022/08/23 15:33:22;;;;;;;;;;;;;;;;;;5093150;28;19912;-28
2022/08/23 15:35:50;;;;;;;;;;;;;;;;;;5093779;28;19957;-25
2022/08/23 15:38:16;;;;;;;;;;;;;;;;;;5092637;28;20387;-23
2022/08/23 15:40:42;;;;;;;;;;;;;;;;;;5094122;28;19916;-28
2022/08/23 15:43:08;;;;;;;;;;;;;;;;;;5094369;28;20262;-26
2022/08/23 15:45:34;;;;;;;;;;;;;;;;;;5094335;28;20185;-30
2022/08/23 15:48:00;;;;;;;;;;;;;;;;;;5094557;28;19969;-29
2022/08/23 15:50:26;;;;;;;;;;;;;;;;;;5095141;28;19912;-27
2022/08/23 15:52:52;;;;;;;;;;;;;;;;;;5097657;28;19911;-25
2022/08/23 15:55:18;;;;;;;;;;;;;;;;;;5098018;28;19912;-27
2022/08/23 15:57:44;;;;;;;;;;;;;;;;;;5097867;28;20252;-29
2022/08/23 16:00:10;;;;;;;;;;;;;;;;;;5097583;28;19915;-28
2022/08/23 16:02:36;;;;;;;;;;;;;;;;;;5096322;28;19965;-27
2022/08/23 16:05:02;;;;;;;;;;;;;;;;;;5097013;28;19920;-25
2022/08/23 16:07:28;;;;;;;;;;;;;;;;;;5096641;28;19908;-29
2022/08/23 16:09:54;;;;;;;;;;;;;;;;;;5097646;28;19915;-28
2022/08/23 16:12:20;;;;;;;;;;;;;;;;;;5096499;28;19920;-27
2022/08/23 16:14:46;;;;;;;;;;;;;;;;;;5097371;28;20215;-29
2022/08/23 16:17:13;;;;;;;;;;;;;;;;;;5097681;28;19912;-27
2022/08/23 16:19:39;;;;;;;;;;;;;;;;;;5097099;28;19916;-24
2022/08/23 16:22:05;;;;;;;;;;;;;;;;;;5097240;28;19908;-27
2022/08/23 16:24:31;;;;;;;;;;;;;;;;;;5097337;28;19926;-27
2022/08/23 16:26:57;;;;;;;;;;;;;;;;;;5097647;28;19922;-26
2022/08/23 16:29:23;;;;;;;;;;;;;;;;;;5097351;28;20321;-28
2022/08/23 16:31:50;;;;;;;;;;;;;;;;;;5096862;28;19912;-28
2022/08/23 16:34:16;;;;;;;;;;;;;;;;;;5097082;28;19912;-26
2022/08/23 16:36:42;;;;;;;;;;;;;;;;;;5097356;28;19916;-26
2022/08/23 16:39:08;;;;;;;;;;;;;;;;;;5097248;28;19912;-29
2022/08/23 16:41:34;;;;;;;;;;;;;;;;;;5097377;28;19927;-28
2022/08/23 16:44:00;;;;;;;;;;;;;;;;;;5096923;28;19913;-30
2022/08/23 16:46:28;;;;;;;;;;;;;;;;;;5097408;28;19912;-26
2022/08/23 16:48:54;;;;;;;;;;;;;;;;;;5095989;28;19912;-24